Time;durP1;ratioP1;P1;durP2;ratioP2;P2;SDS_P1;SDS_P2;PMS_P1;PMS_P2;Temp;Humidity;BMP_temperature;BMP_pressure;BME280_temperature;BME280_humidity;BME280_pressure;Samples;Min_cycle;Max_cycle;Signal;HPM_P1;HPM_P2
2023/04/16 00:00:02;;;;;;;0.30;0.30;;;;;;;8.16;91.69;99254.31;5057190;28;20044;-69
2023/04/16 00:02:38;;;;;;;0.73;0.73;;;;;;;8.10;91.18;99250.91;5056690;28;20273;-70
2023/04/16 00:05:09;;;;;;;0.55;0.55;;;;;;;8.18;91.12;99263.63;5056772;28;20282;-69
2023/04/16 00:07:38;;;;;;;2.10;1.90;;;;;;;8.16;91.62;99259.38;5056827;28;20467;-69
2023/04/16 00:10:08;;;;;;;1.92;0.93;;;;;;;8.05;92.07;99250.03;5055443;28;20487;-70
2023/04/16 00:12:37;;;;;;;1.60;1.50;;;;;;;8.11;91.67;99260.19;5056464;28;20049;-71
2023/04/16 00:15:06;;;;;;;0.43;0.43;;;;;;;8.12;91.42;99258.50;5056426;28;20075;-69
2023/04/16 00:17:35;;;;;;;;;;;;;;;8.10;90.95;99258.53;5056966;28;20110;-70
2023/04/16 00:20:05;;;;;;;0.85;0.85;;;;;;;8.11;91.36;99266.97;5056370;28;20291;-70
2023/04/16 00:22:35;;;;;;;0.60;0.60;;;;;;;8.09;90.93;99274.59;5056552;28;20119;-69
2023/04/16 00:25:05;;;;;;;0.95;0.90;;;;;;;8.01;90.97;99263.56;5056525;28;20221;-69
2023/04/16 00:27:34;;;;;;;0.40;0.40;;;;;;;8.07;91.22;99280.53;5056143;28;20502;-70
2023/04/16 00:30:03;;;;;;;1.53;1.33;;;;;;;7.98;91.94;99276.28;5054920;28;20041;-70
2023/04/16 00:32:32;;;;;;;1.10;1.05;;;;;;;7.94;91.44;99279.63;5054941;28;20037;-69
2023/04/16 00:35:01;;;;;;;0.65;0.65;;;;;;;7.92;91.00;99280.47;5054853;28;20044;-69
2023/04/16 00:37:30;;;;;;;1.15;1.05;;;;;;;7.93;91.33;99287.25;5055935;28;20045;-70
2023/04/16 00:40:01;;;;;;;1.40;1.33;;;;;;;7.93;91.62;99288.13;5055833;28;20079;-69
2023/04/16 00:42:30;;;;;;;1.33;1.23;;;;;;;7.89;91.90;99277.94;5054770;28;20049;-69
2023/04/16 00:44:59;;;;;;;4.60;2.23;;;;;;;7.93;91.34;99285.56;5056004;28;20509;-70
2023/04/16 00:47:28;;;;;;;0.30;0.30;;;;;;;7.90;91.56;99287.25;5054663;28;20082;-70
2023/04/16 00:49:57;;;;;;;1.90;1.60;;;;;;;7.83;91.31;99286.38;5054837;28;20041;-70
2023/04/16 00:52:27;;;;;;;7.40;2.07;;;;;;;7.84;91.37;99287.25;5055947;28;20385;-70
2023/04/16 00:54:57;;;;;;;0.98;0.95;;;;;;;7.86;91.24;99291.47;5055854;28;20633;-69
2023/04/16 00:57:28;;;;;;;1.17;1.08;;;;;;;7.85;92.02;99284.69;5055688;28;20056;-69
2023/04/16 00:59:58;;;;;;;0.82;0.80;;;;;;;7.89;91.79;99300.81;5054990;28;20052;-70
2023/04/16 01:02:27;;;;;;;1.75;1.52;;;;;;;7.91;91.73;99299.97;5054295;28;20041;-70
2023/04/16 01:04:56;;;;;;;4.25;2.05;;;;;;;7.97;92.81;99294.91;5055811;28;20055;-71
2023/04/16 01:07:25;;;;;;;0.40;0.40;;;;;;;8.01;91.91;99301.69;5055954;28;20041;-68
2023/04/16 01:09:54;;;;;;;0.90;0.90;;;;;;;8.02;91.72;99305.94;5054928;28;20529;-69
2023/04/16 01:12:22;;;;;;;1.10;1.03;;;;;;;8.01;91.42;99296.59;5055613;28;20537;-70
2023/04/16 01:14:54;;;;;;;8.30;1.48;;;;;;;8.04;91.91;99311.00;5055370;28;20751;-70
2023/04/16 01:17:23;;;;;;;0.77;0.77;;;;;;;7.99;92.36;99298.28;5055236;28;20053;-70
2023/04/16 01:19:53;;;;;;;2.97;1.45;;;;;;;8.04;92.12;99296.63;5055080;28;20041;-71
2023/04/16 01:22:23;;;;;;;7.18;0.98;;;;;;;7.99;92.50;99303.38;5054202;28;20438;-70
2023/04/16 01:24:52;;;;;;;0.52;0.52;;;;;;;7.96;91.93;99305.91;5055545;28;20068;-70
2023/04/16 01:27:21;;;;;;;0.75;0.75;;;;;;;7.95;92.53;99301.66;5054918;28;20090;-70
2023/04/16 01:29:50;;;;;;;0.40;0.40;;;;;;;7.95;92.32;99311.84;5054976;28;20037;-70
2023/04/16 01:32:24;;;;;;;0.80;0.80;;;;;;;7.98;92.26;99306.78;5054992;28;20127;-69
2023/04/16 01:34:53;;;;;;;0.40;0.40;;;;;;;7.97;93.18;99310.13;5054964;28;20491;-70
2023/04/16 01:37:23;;;;;;;2.45;2.25;;;;;;;7.93;92.54;99310.97;5054739;28;20041;-70
2023/04/16 01:39:52;;;;;;;0.57;0.57;;;;;;;7.92;92.65;99311.81;5054708;28;20081;-70
2023/04/16 01:42:21;;;;;;;0.45;0.45;;;;;;;7.91;92.64;99315.22;5054678;28;20041;-71
2023/04/16 01:44:51;;;;;;;1.48;0.60;;;;;;;7.94;92.94;99314.38;5054973;28;20045;-70
2023/04/16 01:47:20;;;;;;;0.40;0.40;;;;;;;7.97;92.89;99310.13;5054450;28;20041;-70
2023/04/16 01:49:49;;;;;;;0.90;0.70;;;;;;;7.97;93.09;99305.06;5054893;28;20045;-70
2023/04/16 01:52:18;;;;;;;1.27;1.17;;;;;;;8.03;93.28;99315.25;5054863;28;20537;-70
2023/04/16 01:54:48;;;;;;;3.07;2.20;;;;;;;8.03;92.74;99320.34;5053339;28;20048;-70
2023/04/16 01:57:17;;;;;;;1.10;0.98;;;;;;;8.05;92.79;99331.34;5054488;28;20110;-70
2023/04/16 01:59:46;;;;;;;3.13;2.78;;;;;;;8.07;92.58;99322.03;5054602;28;20041;-70
2023/04/16 02:02:16;;;;;;;1.30;1.00;;;;;;;8.08;93.43;99328.84;5053267;28;20049;-70
2023/04/16 02:04:46;;;;;;;0.93;0.93;;;;;;;8.07;92.78;99321.19;5053378;28;20060;-69
2023/04/16 02:07:15;;;;;;;1.95;1.70;;;;;;;8.05;92.94;99323.72;5054340;28;20131;-70
2023/04/16 02:09:43;;;;;;;1.63;1.50;;;;;;;8.07;92.54;99322.03;5053002;28;20041;-69
2023/04/16 02:12:14;;;;;;;2.03;1.40;;;;;;;8.10;92.87;99327.13;5052987;28;20128;-69
2023/04/16 02:14:43;;;;;;;1.10;1.05;;;;;;;8.07;93.10;99322.03;5054742;28;20045;-70
2023/04/16 02:17:16;;;;;;;0.50;0.50;;;;;;;8.05;93.06;99325.41;5054200;28;20099;-70
2023/04/16 02:19:46;;;;;;;1.30;1.20;;;;;;;8.06;92.73;99324.59;5054011;28;20045;-70
2023/04/16 02:22:16;;;;;;;1.27;1.13;;;;;;;8.09;93.15;99329.66;5053235;28;20162;-70
2023/04/16 02:24:44;;;;;;;0.95;0.95;;;;;;;8.11;92.87;99326.28;5053338;28;20144;-69
2023/04/16 02:27:15;;;;;;;0.40;0.40;;;;;;;8.11;93.40;99323.75;5053923;28;20041;-68
2023/04/16 02:29:44;;;;;;;1.92;1.33;;;;;;;8.13;93.00;99320.38;5052957;28;20487;-68
2023/04/16 02:32:17;;;;;;;0.47;0.47;;;;;;;8.12;93.17;99327.13;5054135;28;20552;-68
2023/04/16 02:34:47;;;;;;;0.95;0.88;;;;;;;8.10;93.82;99327.13;5053814;28;20044;-68
2023/04/16 02:37:17;;;;;;;0.70;0.70;;;;;;;8.11;93.52;99328.81;5052865;28;20048;-68
2023/04/16 02:39:46;;;;;;;0.77;0.77;;;;;;;8.07;92.73;99322.03;5052319;28;20558;-68
2023/04/16 02:42:16;;;;;;;3.38;1.35;;;;;;;8.10;93.76;99324.59;5053605;28;20297;-69
2023/04/16 02:44:45;;;;;;;0.60;0.60;;;;;;;8.09;93.08;99330.50;5052740;28;20099;-69
2023/04/16 02:47:14;;;;;;;0.40;0.40;;;;;;;8.11;93.32;99338.13;5053011;28;20394;-69
2023/04/16 02:49:43;;;;;;;0.82;0.82;;;;;;;8.13;93.45;99335.63;5052282;28;20041;-69
2023/04/16 02:52:12;;;;;;;1.02;0.80;;;;;;;7.92;93.51;99306.72;5053858;28;20107;-68
2023/04/16 02:54:43;;;;;;;3.28;2.25;;;;;;;8.07;92.76;99332.22;5053576;28;20384;-67
2023/04/16 02:57:12;;;;;;;1.43;1.33;;;;;;;8.08;93.54;99339.00;5052788;28;20484;-68
2023/04/16 02:59:42;;;;;;;1.70;1.60;;;;;;;8.09;93.00;99343.22;5052444;28;20293;-68
2023/04/16 03:02:12;;;;;;;1.80;0.82;;;;;;;8.05;93.14;99338.13;5052232;28;20494;-68
2023/04/16 03:04:41;;;;;;;1.55;1.45;;;;;;;8.06;93.11;99345.75;5052221;28;20048;-68
2023/04/16 03:07:11;;;;;;;1.45;1.35;;;;;;;8.04;93.10;99349.97;5053697;28;20040;-68
2023/04/16 03:09:40;;;;;;;0.40;0.38;;;;;;;8.00;93.19;99345.72;5053326;28;20483;-68
2023/04/16 03:12:09;;;;;;;2.70;0.90;;;;;;;8.01;92.78;99347.41;5052061;28;20056;-69
2023/04/16 03:14:39;;;;;;;;;;;;;;;7.96;92.48;99349.13;5054021;28;20049;-68
2023/04/16 03:17:09;;;;;;;0.40;0.40;;;;;;;7.92;92.42;99349.94;5053291;28;19928;-68
2023/04/16 03:19:38;;;;;;;1.80;1.35;;;;;;;7.88;92.04;99350.75;5052425;28;20053;-67
2023/04/16 03:22:07;;;;;;;0.73;0.73;;;;;;;7.85;93.49;99350.75;5053345;28;20030;-69
2023/04/16 03:24:37;;;;;;;0.63;0.63;;;;;;;7.83;92.97;99342.28;5053550;28;20043;-66
2023/04/16 03:27:06;;;;;;;2.17;1.35;;;;;;;7.81;92.62;99349.03;5052418;28;20399;-70
2023/04/16 03:29:37;;;;;;;0.30;0.30;;;;;;;7.76;92.82;99360.88;5052090;28;20505;-70
2023/04/16 03:32:11;;;;;;;2.55;1.48;;;;;;;7.74;93.15;99366.78;5053200;28;20053;-69
2023/04/16 03:34:40;;;;;;;0.30;0.30;;;;;;;7.68;92.62;99365.03;5057049;28;20048;-70
2023/04/16 03:37:10;;;;;;;1.13;1.02;;;;;;;7.65;92.89;99375.22;5055928;28;20052;-69
2023/04/16 03:39:39;;;;;;;0.70;0.70;;;;;;;7.64;92.81;99388.72;5057153;28;20557;-70
2023/04/16 03:42:11;;;;;;;0.65;0.55;;;;;;;7.65;92.28;99387.91;5057335;28;20072;-69
2023/04/16 03:44:40;;;;;;;0.70;0.70;;;;;;;7.63;92.49;99387.03;5056080;28;20087;-70
2023/04/16 03:47:11;;;;;;;0.80;0.60;;;;;;;7.61;92.64;99386.16;5056912;28;20114;-69
2023/04/16 03:49:40;;;;;;;0.60;0.60;;;;;;;7.59;92.04;99398.00;5056915;28;20049;-70
2023/04/16 03:52:10;;;;;;;1.10;1.00;;;;;;;7.60;92.16;99399.72;5055984;28;20056;-69
2023/04/16 03:54:39;;;;;;;0.88;0.82;;;;;;;7.61;92.93;99400.53;5056967;28;20462;-69
2023/04/16 03:57:19;;;;;;;1.35;1.10;;;;;;;7.62;91.99;99392.97;5057103;28;20048;-70
2023/04/16 03:59:48;;;;;;;1.23;1.13;;;;;;;7.62;93.04;99399.72;5056678;28;20052;-70
2023/04/16 04:02:20;;;;;;;0.50;0.50;;;;;;;7.65;92.07;99403.16;5056619;28;20051;-69
2023/04/16 04:04:49;;;;;;;1.10;1.08;;;;;;;7.68;92.23;99403.13;5055478;28;20052;-70
2023/04/16 04:07:18;;;;;;;1.02;0.90;;;;;;;7.71;92.33;99408.25;5055659;28;20137;-70
2023/04/16 04:09:47;;;;;;;1.60;1.43;;;;;;;7.69;92.32;99409.94;5055373;28;20140;-70
2023/04/16 04:12:16;;;;;;;1.48;1.23;;;;;;;7.74;92.47;99413.34;5056530;28;20045;-70
2023/04/16 04:14:46;;;;;;;0.52;0.52;;;;;;;7.76;92.61;99420.97;5055293;28;20119;-68
2023/04/16 04:17:15;;;;;;;0.57;0.57;;;;;;;7.77;92.57;99428.63;5055277;28;20045;-69
2023/04/16 04:19:45;;;;;;;0.80;0.80;;;;;;;7.80;92.69;99425.22;5055126;28;20068;-67
2023/04/16 04:22:29;;;;;;;1.50;1.25;;;;;;;7.80;92.89;99433.69;5055099;28;20041;-67
2023/04/16 04:24:58;;;;;;;1.30;1.20;;;;;;;7.78;92.46;99431.97;5055339;28;20033;-68
2023/04/16 04:27:30;;;;;;;0.65;0.65;;;;;;;7.79;92.44;99436.25;5055336;28;20629;-68
2023/04/16 04:29:59;;;;;;;0.40;0.40;;;;;;;7.80;91.89;99435.38;5055024;28;20123;-69
2023/04/16 04:32:28;;;;;;;2.65;1.35;;;;;;;7.79;92.66;99441.31;5054804;28;20080;-67
2023/04/16 04:35:00;;;;;;;0.20;0.20;;;;;;;7.78;93.07;99435.38;5054684;28;20043;-68
2023/04/16 04:37:29;;;;;;;1.92;1.73;;;;;;;7.80;92.95;99443.00;5054840;28;20167;-67
2023/04/16 04:39:58;;;;;;;1.95;1.75;;;;;;;7.80;92.38;99448.94;5054513;28;20053;-69
2023/04/16 04:42:26;;;;;;;0.67;0.67;;;;;;;7.78;92.51;99445.53;5055780;28;20037;-68
2023/04/16 04:44:56;;;;;;;0.57;0.57;;;;;;;7.79;91.78;99447.25;5053771;28;20037;-68
2023/04/16 04:47:25;;;;;;;0.82;0.75;;;;;;;7.84;92.84;99458.31;5054663;28;20531;-68
2023/04/16 04:49:54;;;;;;;1.10;1.00;;;;;;;7.89;92.53;99454.06;5054619;28;20049;-70
2023/04/16 04:52:25;;;;;;;0.73;0.73;;;;;;;7.98;91.96;99449.06;5054531;28;20045;-68
2023/04/16 04:54:54;;;;;;;1.20;1.10;;;;;;;8.13;92.09;99462.69;5056304;28;20041;-68
2023/04/16 04:57:23;;;;;;;0.60;0.60;;;;;;;8.26;92.13;99454.28;5055582;28;20048;-69
2023/04/16 04:59:55;;;;;;;0.63;0.63;;;;;;;8.35;92.30;99455.19;5055869;28;20077;-68
2023/04/16 05:02:24;;;;;;;0.75;0.60;;;;;;;8.45;92.66;99456.09;5054494;28;20044;-68
2023/04/16 05:04:54;;;;;;;;;;;;;;;8.53;92.44;99457.84;5055870;28;20045;-67
2023/04/16 05:07:24;;;;;;;0.90;0.90;;;;;;;8.65;92.33;99459.56;5055654;28;20370;-67
2023/04/16 05:09:53;;;;;;;0.57;0.57;;;;;;;8.71;92.36;99464.66;5055688;28;20076;-66
2023/04/16 05:12:21;;;;;;;1.90;1.10;;;;;;;8.75;91.89;99461.31;5054858;28;20041;-68
2023/04/16 05:14:51;;;;;;;0.67;0.67;;;;;;;8.81;92.26;99461.31;5054849;28;20414;-67
2023/04/16 05:17:20;;;;;;;0.98;0.93;;;;;;;8.78;91.81;99474.03;5054755;28;20041;-67
2023/04/16 05:19:49;;;;;;;2.28;1.02;;;;;;;8.79;91.17;99478.25;5054236;28;20041;-67
2023/04/16 05:22:19;;;;;;;0.97;0.93;;;;;;;8.86;91.38;99485.06;5054681;28;20129;-67
2023/04/16 05:24:49;;;;;;;0.45;0.45;;;;;;;9.00;91.19;99474.94;5055133;28;20123;-66
2023/04/16 05:27:18;;;;;;;0.40;0.40;;;;;;;9.01;90.93;99474.94;5055164;28;20049;-66
2023/04/16 05:29:47;;;;;;;0.50;0.50;;;;;;;9.05;90.34;99480.88;5055738;28;20041;-66
2023/04/16 05:32:15;;;;;;;0.90;0.90;;;;;;;9.16;91.07;99482.63;5054907;28;20043;-66
2023/04/16 05:34:44;;;;;;;1.23;1.17;;;;;;;9.10;90.36;99464.75;5055144;28;20072;-66
2023/04/16 05:37:13;;;;;;;1.37;0.87;;;;;;;9.25;90.45;99479.22;5054698;28;20037;-66
2023/04/16 05:39:42;;;;;;;0.93;0.80;;;;;;;9.42;90.45;99486.03;5054763;28;20356;-67
2023/04/16 05:42:12;;;;;;;1.67;1.23;;;;;;;9.61;90.04;99484.34;5054673;28;20557;-67
2023/04/16 05:44:41;;;;;;;0.43;0.43;;;;;;;9.71;89.63;99492.81;5054982;28;20521;-67
2023/04/16 05:47:10;;;;;;;1.20;1.10;;;;;;;9.74;88.77;99490.28;5054516;28;20133;-66
2023/04/16 05:49:38;;;;;;;1.13;0.67;;;;;;;9.80;88.72;99497.91;5054798;28;20127;-67
2023/04/16 05:52:07;;;;;;;0.98;0.68;;;;;;;9.82;88.51;99488.56;5054779;28;20041;-66
2023/04/16 05:54:36;;;;;;;1.65;1.55;;;;;;;9.85;87.81;99493.66;5054857;28;20052;-67
2023/04/16 05:57:05;;;;;;;0.37;0.37;;;;;;;9.86;88.24;99490.28;5054286;28;20056;-66
2023/04/16 05:59:36;;;;;;;0.50;0.50;;;;;;;9.86;87.36;99490.28;5054475;28;20467;-67
2023/04/16 06:02:04;;;;;;;1.30;1.02;;;;;;;9.89;86.82;99500.44;5054362;28;20511;-66
2023/04/16 06:04:34;;;;;;;1.80;1.70;;;;;;;9.92;86.28;99508.09;5054222;28;20040;-67
2023/04/16 06:07:03;;;;;;;0.88;0.57;;;;;;;9.90;86.14;99497.06;5054158;28;20049;-66
2023/04/16 06:09:32;;;;;;;0.30;0.30;;;;;;;9.88;85.89;99504.72;5053696;28;20064;-66
2023/04/16 06:12:01;;;;;;;0.57;0.57;;;;;;;9.97;85.27;99506.41;5051001;28;20768;-67
2023/04/16 06:14:30;;;;;;;0.38;0.38;;;;;;;10.04;84.99;99505.53;5053885;28;20124;-67
2023/04/16 06:17:00;;;;;;;0.28;0.28;;;;;;;10.12;84.89;99498.75;5053677;28;20127;-66
2023/04/16 06:19:28;;;;;;;0.68;0.68;;;;;;;10.10;84.63;99496.16;5053766;28;20037;-66
2023/04/16 06:21:57;;;;;;;8.77;1.10;;;;;;;10.03;84.13;99503.81;5053251;28;20064;-66
2023/04/16 06:24:26;;;;;;;0.77;0.77;;;;;;;9.93;83.66;99509.81;5054257;28;20434;-66
2023/04/16 06:26:56;;;;;;;1.20;1.05;;;;;;;9.97;83.91;99503.84;5053884;28;20041;-67
2023/04/16 06:29:25;;;;;;;0.50;0.50;;;;;;;10.01;83.72;99508.94;5053843;28;20065;-67
2023/04/16 06:32:09;;;;;;;0.65;0.65;;;;;;;10.08;83.44;99507.22;5053880;28;20044;-66
2023/04/16 06:34:39;;;;;;;0.45;0.45;;;;;;;10.23;83.63;99507.22;5053632;28;20037;-66
2023/04/16 06:37:07;;;;;;;0.93;0.85;;;;;;;10.25;83.21;99510.63;5053862;28;20074;-66
2023/04/16 06:39:38;;;;;;;0.25;0.25;;;;;;;10.33;83.49;99516.56;5053614;28;20565;-65
2023/04/16 06:42:07;;;;;;;0.50;0.50;;;;;;;10.41;82.77;99499.53;5053799;28;20494;-66
2023/04/16 06:44:36;;;;;;;2.17;0.75;;;;;;;10.43;82.13;99500.38;5053763;28;20037;-66
2023/04/16 06:47:04;;;;;;;0.32;0.32;;;;;;;10.47;81.89;99507.16;5053648;28;20541;-65
2023/04/16 06:49:35;;;;;;;0.53;0.53;;;;;;;10.39;81.07;99506.31;5054054;28;20072;-65
2023/04/16 06:52:04;;;;;;;1.05;0.95;;;;;;;10.37;81.02;99510.59;5053605;28;20048;-66
2023/04/16 06:54:33;;;;;;;0.70;0.70;;;;;;;10.56;81.28;99509.69;5053664;28;20542;-66
2023/04/16 06:57:02;;;;;;;0.30;0.30;;;;;;;10.74;80.77;99501.97;5053796;28;20495;-65
2023/04/16 06:59:31;;;;;;;0.40;0.40;;;;;;;10.74;80.60;99507.06;5053606;28;20083;-65
2023/04/16 07:02:00;;;;;;;0.68;0.65;;;;;;;10.78;80.38;99506.19;5053772;28;20155;-66
2023/04/16 07:04:30;;;;;;;0.65;0.57;;;;;;;10.96;80.12;99502.72;5053359;28;20491;-66
2023/04/16 07:07:00;;;;;;;0.20;0.20;;;;;;;11.11;79.55;99501.78;5053574;28;20048;-66
2023/04/16 07:09:29;;;;;;;1.58;0.70;;;;;;;11.20;79.21;99501.72;5051731;28;20068;-66
2023/04/16 07:11:58;;;;;;;0.47;0.47;;;;;;;11.30;78.85;99503.38;5053684;28;20518;-66
2023/04/16 07:14:27;;;;;;;0.30;0.30;;;;;;;11.33;78.57;99504.19;5053379;28;20048;-66
2023/04/16 07:16:56;;;;;;;0.68;0.68;;;;;;;11.52;78.34;99512.56;5052350;28;20041;-66
2023/04/16 07:19:29;;;;;;;0.40;0.40;;;;;;;11.61;77.61;99509.09;5053374;28;20057;-66
2023/04/16 07:21:58;;;;;;;0.20;0.20;;;;;;;11.62;77.36;99509.06;5053593;28;20380;-66
2023/04/16 07:24:28;;;;;;;0.30;0.30;;;;;;;11.62;77.05;99505.66;5053248;28;20495;-66
2023/04/16 07:26:57;;;;;;;0.32;0.32;;;;;;;11.77;77.05;99513.25;5053537;28;20460;-66
2023/04/16 07:29:26;;;;;;;0.63;0.55;;;;;;;11.97;76.59;99507.09;5053494;28;20048;-67
2023/04/16 07:31:54;;;;;;;0.73;0.57;;;;;;;12.22;76.68;99509.41;5053093;28;20041;-66
2023/04/16 07:34:23;;;;;;;1.53;0.67;;;;;;;12.44;75.99;99505.78;5053219;28;20111;-67
2023/04/16 07:36:52;;;;;;;0.80;0.80;;;;;;;12.62;74.86;99503.03;5053084;28;20047;-67
2023/04/16 07:39:21;;;;;;;0.95;0.88;;;;;;;12.63;73.54;99504.69;5052941;28;20091;-66
2023/04/16 07:41:51;;;;;;;0.57;0.57;;;;;;;12.71;72.96;99510.59;5052910;28;20068;-65
2023/04/16 07:44:19;;;;;;;0.30;0.30;;;;;;;12.93;73.38;99506.91;5052960;28;20041;-66
2023/04/16 07:46:48;;;;;;;0.50;0.50;;;;;;;13.05;72.62;99504.16;5053135;28;20091;-67
2023/04/16 07:49:17;;;;;;;0.60;0.60;;;;;;;13.17;71.86;99498.88;5052953;28;20045;-67
2023/04/16 07:51:46;;;;;;;0.38;0.38;;;;;;;13.13;70.78;99504.94;5053034;28;20059;-66
2023/04/16 07:54:15;;;;;;;0.30;0.30;;;;;;;13.18;70.57;99508.28;5053204;28;20458;-67
2023/04/16 07:56:43;;;;;;;0.40;0.40;;;;;;;13.39;70.84;99513.09;5052495;28;20044;-66
2023/04/16 07:59:14;;;;;;;0.43;0.43;;;;;;;13.52;69.88;99518.03;5052910;28;20041;-66
2023/04/16 08:01:53;;;;;;;0.57;0.57;;;;;;;13.35;68.80;99521.72;5053056;28;20123;-66
2023/04/16 08:04:24;;;;;;;0.30;0.30;;;;;;;13.48;68.79;99517.25;5052874;28;20049;-66
2023/04/16 08:06:54;;;;;;;3.20;1.15;;;;;;;13.64;68.39;99517.84;5053184;28;20061;-66
2023/04/16 08:09:24;;;;;;;0.40;0.40;;;;;;;13.72;67.81;99524.56;5053151;28;20049;-66
2023/04/16 08:11:53;;;;;;;0.40;0.40;;;;;;;13.81;67.42;99521.00;5052689;28;20067;-66
2023/04/16 08:14:23;;;;;;;0.60;0.60;;;;;;;13.86;66.82;99532.03;5052772;28;20096;-66
2023/04/16 08:16:51;;;;;;;0.60;0.47;;;;;;;14.14;66.63;99525.56;5053041;28;20049;-66
2023/04/16 08:19:20;;;;;;;0.30;0.30;;;;;;;14.25;65.53;99536.50;5053933;28;20041;-66
2023/04/16 08:21:49;;;;;;;0.47;0.47;;;;;;;14.51;65.51;99538.59;5055674;28;20037;-66
2023/04/16 08:24:18;;;;;;;0.55;0.55;;;;;;;14.64;65.32;99533.19;5056448;28;20047;-65
2023/04/16 08:26:47;;;;;;;0.37;0.37;;;;;;;14.51;64.26;99536.88;5056479;28;20119;-66
2023/04/16 08:29:15;;;;;;;0.40;0.40;;;;;;;14.33;63.45;99537.22;5056449;28;20069;-66
2023/04/16 08:31:45;;;;;;;0.38;0.38;;;;;;;14.28;63.16;99536.41;5056491;28;20041;-66
2023/04/16 08:34:14;;;;;;;0.40;0.40;;;;;;;14.09;62.44;99541.03;5055997;28;20045;-66
2023/04/16 08:36:44;;;;;;;0.57;0.57;;;;;;;14.09;64.11;99542.75;5056458;28;20102;-65
2023/04/16 08:39:13;;;;;;;0.30;0.30;;;;;;;14.13;64.82;99539.28;5056023;28;20056;-66
2023/04/16 08:41:44;;;;;;;0.50;0.50;;;;;;;14.07;64.50;99541.94;5056154;28;20434;-66
2023/04/16 08:44:20;;;;;;;0.40;0.40;;;;;;;14.05;63.73;99541.13;5055895;28;20115;-65
2023/04/16 08:46:56;;;;;;;0.30;0.30;;;;;;;13.98;62.99;99539.53;5055900;28;20053;-65
2023/04/16 08:49:26;;;;;;;0.40;0.40;;;;;;;13.97;62.64;99540.38;5056164;28;20071;-65
2023/04/16 08:51:56;;;;;;;0.40;0.40;;;;;;;13.97;63.00;99537.81;5056628;28;20045;-66
2023/04/16 08:54:34;;;;;;;0.47;0.47;;;;;;;13.88;62.61;99537.97;5055507;28;20072;-65
2023/04/16 08:57:06;;;;;;;0.30;0.30;;;;;;;13.91;63.13;99533.66;5055599;28;20107;-65
2023/04/16 08:59:37;;;;;;;0.20;0.20;;;;;;;13.91;62.88;99532.81;5055980;28;20049;-65
2023/04/16 09:02:10;;;;;;;4.13;1.05;;;;;;;13.98;62.53;99544.66;5055465;28;20083;-65
2023/04/16 09:04:39;;;;;;;0.40;0.40;;;;;;;14.15;61.87;99542.66;5055495;28;20487;-65
2023/04/16 09:07:10;;;;;;;2.15;1.08;;;;;;;14.63;62.21;99540.94;5055707;28;20045;-66
2023/04/16 09:09:41;;;;;;;0.88;0.55;;;;;;;14.97;62.17;99541.13;5055534;28;20049;-65
2023/04/16 09:12:10;;;;;;;0.60;0.60;;;;;;;14.92;61.00;99546.34;5055654;28;20399;-66
2023/04/16 09:14:41;;;;;;;0.65;0.65;;;;;;;15.21;61.06;99536.28;5055394;28;20045;-66
2023/04/16 09:17:14;;;;;;;0.85;0.85;;;;;;;15.42;60.79;99542.69;5055404;28;20053;-66
2023/04/16 09:19:43;;;;;;;0.55;0.55;;;;;;;15.38;60.65;99543.63;5055257;28;20052;-65
2023/04/16 09:22:11;;;;;;;0.40;0.40;;;;;;;15.65;61.64;99540.47;5055227;28;20044;-66
2023/04/16 09:24:40;;;;;;;0.40;0.40;;;;;;;15.58;60.61;99538.06;5055063;28;20120;-65
2023/04/16 09:27:09;;;;;;;0.38;0.38;;;;;;;15.69;61.10;99539.50;5055110;28;20107;-66
2023/04/16 09:29:40;;;;;;;0.60;0.57;;;;;;;15.69;59.92;99538.69;5055292;28;20041;-65
2023/04/16 09:32:11;;;;;;;0.73;0.73;;;;;;;15.62;59.36;99548.25;5054401;28;20063;-66
2023/04/16 09:34:56;;;;;;;0.90;0.90;;;;;;;15.88;60.06;99545.91;5054932;28;20074;-67
2023/04/16 09:37:25;;;;;;;0.30;0.30;;;;;;;16.07;59.92;99546.31;5054835;28;20139;-65
2023/04/16 09:39:56;;;;;;;0.73;0.73;;;;;;;16.26;59.88;99544.09;5053494;28;20056;-66
2023/04/16 09:42:27;;;;;;;0.68;0.68;;;;;;;15.98;58.98;99542.22;5054756;28;20049;-66
2023/04/16 09:44:56;;;;;;;0.63;0.63;;;;;;;15.68;58.87;99537.81;5054792;28;20049;-65
2023/04/16 09:47:41;;;;;;;0.50;0.50;;;;;;;15.79;59.70;99543.53;5054329;28;20072;-66
2023/04/16 09:50:16;;;;;;;0.95;0.60;;;;;;;16.00;60.51;99543.03;5054500;28;20395;-66
2023/04/16 09:52:50;;;;;;;0.52;0.52;;;;;;;16.06;60.06;99539.47;5054686;28;20103;-65
2023/04/16 09:55:23;;;;;;;0.50;0.50;;;;;;;15.92;59.22;99547.53;5054803;28;20045;-65
2023/04/16 09:57:59;;;;;;;0.40;0.40;;;;;;;15.60;59.04;99549.16;5055116;28;20440;-65
2023/04/16 10:00:30;;;;;;;0.88;0.85;;;;;;;15.48;58.55;99542.56;5054455;28;20095;-65
2023/04/16 10:03:06;;;;;;;0.50;0.50;;;;;;;15.37;58.21;99542.81;5054935;28;20507;-65
2023/04/16 10:05:35;;;;;;;0.80;0.80;;;;;;;15.50;58.81;99537.41;5054542;28;20124;-65
2023/04/16 10:08:11;;;;;;;0.50;0.50;;;;;;;15.78;58.77;99539.31;5054296;28;20045;-66
2023/04/16 10:10:41;;;;;;;0.40;0.40;;;;;;;16.04;58.64;99547.22;5053448;28;20071;-65
2023/04/16 10:13:11;;;;;;;;;;;;;;;16.18;58.39;99544.28;5054928;28;20075;-65
2023/04/16 10:15:40;;;;;;;0.68;0.68;;;;;;;16.33;57.93;99537.91;5054221;28;19971;-66
2023/04/16 10:18:11;;;;;;;0.40;0.40;;;;;;;16.34;58.04;99534.47;5054331;28;20483;-65
2023/04/16 10:20:40;;;;;;;1.27;0.77;;;;;;;16.27;57.16;99538.09;5054122;28;20052;-65
2023/04/16 10:23:09;;;;;;;0.65;0.65;;;;;;;16.06;56.61;99530.00;5054305;28;20065;-65
2023/04/16 10:25:39;;;;;;;0.50;0.50;;;;;;;15.92;56.69;99532.09;5053898;28;20151;-65
2023/04/16 10:28:09;;;;;;;;;;;;;;;15.90;56.57;99533.84;5054333;28;20048;-65
2023/04/16 10:30:38;;;;;;;0.50;0.50;;;;;;;15.83;56.56;99534.88;5053861;28;19964;-65
2023/04/16 10:33:08;;;;;;;0.50;0.50;;;;;;;15.70;56.73;99530.91;5053917;28;20037;-65
2023/04/16 10:35:41;;;;;;;0.50;0.50;;;;;;;15.74;56.72;99532.50;5054168;28;20107;-65
2023/04/16 10:38:23;;;;;;;0.40;0.40;;;;;;;15.95;58.05;99528.59;5053614;28;20052;-65
2023/04/16 10:40:59;;;;;;;0.50;0.50;;;;;;;16.33;58.88;99530.19;5054137;28;20553;-66
2023/04/16 10:43:30;;;;;;;0.85;0.82;;;;;;;16.57;58.78;99532.13;5052895;28;20127;-65
2023/04/16 10:46:18;;;;;;;0.40;0.40;;;;;;;16.70;58.66;99528.31;5053523;28;20049;-65
2023/04/16 10:48:47;;;;;;;0.50;0.50;;;;;;;16.62;58.35;99527.69;5053913;28;20041;-65
2023/04/16 10:51:31;;;;;;;0.68;0.68;;;;;;;16.52;58.00;99528.84;5053648;28;20483;-64
2023/04/16 10:54:04;;;;;;;0.38;0.38;;;;;;;16.36;57.52;99532.69;5053990;28;20124;-65
2023/04/16 10:56:34;;;;;;;0.30;0.30;;;;;;;16.28;57.78;99537.19;5053945;28;20196;-65
2023/04/16 10:59:07;;;;;;;0.40;0.40;;;;;;;16.23;57.65;99526.16;5053758;28;20064;-65
2023/04/16 11:01:38;;;;;;;0.50;0.50;;;;;;;16.14;56.83;99526.41;5053529;28;20049;-65
2023/04/16 11:04:29;;;;;;;0.38;0.38;;;;;;;16.06;57.03;99524.00;5053699;28;20048;-66
2023/04/16 11:07:08;;;;;;;0.50;0.50;;;;;;;16.09;57.42;99529.94;5046190;28;20139;-64
2023/04/16 11:09:55;;;;;;;0.50;0.50;;;;;;;16.10;56.92;99521.31;5053459;28;20087;-64
2023/04/16 11:12:26;;;;;;;0.50;0.50;;;;;;;16.14;57.42;99529.81;5053925;28;20402;-65
2023/04/16 11:14:59;;;;;;;0.30;0.30;;;;;;;16.16;57.17;99529.78;5053435;28;20075;-65
2023/04/16 11:17:32;;;;;;;0.40;0.40;;;;;;;16.07;56.38;99526.56;5053372;28;20119;-64
2023/04/16 11:20:01;;;;;;;1.02;0.77;;;;;;;16.01;55.84;99518.97;5053496;28;20065;-65
2023/04/16 11:22:35;;;;;;;0.70;0.70;;;;;;;16.14;54.92;99526.41;5053525;28;20048;-65
2023/04/16 11:25:04;;;;;;;0.40;0.40;;;;;;;16.16;55.23;99522.91;5053245;28;20127;-65
2023/04/16 11:27:33;;;;;;;0.40;0.40;;;;;;;16.35;56.52;99518.09;5053174;28;20120;-65
2023/04/16 11:30:04;;;;;;;0.50;0.50;;;;;;;16.36;57.11;99519.81;5053295;28;20159;-65
2023/04/16 11:32:35;;;;;;;0.40;0.40;;;;;;;16.26;57.03;99516.63;5053293;28;20052;-65
2023/04/16 11:35:12;;;;;;;0.30;0.30;;;;;;;16.14;56.37;99526.41;5053201;28;20053;-65
2023/04/16 11:37:43;;;;;;;0.40;0.40;;;;;;;16.14;56.13;99526.41;5053426;28;20506;-66
2023/04/16 11:40:12;;;;;;;0.43;0.43;;;;;;;16.18;56.31;99531.41;5053192;28;20045;-66
2023/04/16 11:42:43;;;;;;;0.73;0.73;;;;;;;16.20;55.71;99523.66;5053101;28;20136;-66
2023/04/16 11:45:12;;;;;;;0.50;0.50;;;;;;;16.08;54.61;99517.09;5053136;28;20072;-66
2023/04/16 11:47:50;;;;;;;1.08;0.98;;;;;;;16.20;54.66;99521.06;5053206;28;20458;-66
2023/04/16 11:50:21;;;;;;;0.60;0.60;;;;;;;16.29;54.12;99520.84;5053103;28;20549;-66
2023/04/16 11:52:53;;;;;;;0.40;0.40;;;;;;;16.32;53.70;99513.03;5052817;28;20060;-66